sensor_id;sensor_type;location;lat;lon;timestamp;temperature;humidity
36990;DHT22;22898;52.102;5.776;2023-09-07T00:00:10;28.60;89.00
36990;DHT22;22898;52.102;5.776;2023-09-07T00:02:36;28.60;89.00
36990;DHT22;22898;52.102;5.776;2023-09-07T00:05:01;28.60;89.30
36990;DHT22;22898;52.102;5.776;2023-09-07T00:07:27;28.50;89.40
36990;DHT22;22898;52.102;5.776;2023-09-07T00:09:53;28.40;89.50
36990;DHT22;22898;52.102;5.776;2023-09-07T00:12:18;28.50;89.60
36990;DHT22;22898;52.102;5.776;2023-09-07T00:14:44;28.50;89.30
36990;DHT22;22898;52.102;5.776;2023-09-07T00:17:10;28.40;89.20
36990;DHT22;22898;52.102;5.776;2023-09-07T00:19:36;28.40;89.20
36990;DHT22;22898;52.102;5.776;2023-09-07T00:22:03;28.40;89.40
36990;DHT22;22898;52.102;5.776;2023-09-07T00:24:29;28.40;89.50
36990;DHT22;22898;52.102;5.776;2023-09-07T00:26:54;28.40;89.50
36990;DHT22;22898;52.102;5.776;2023-09-07T00:29:20;28.30;89.50
36990;DHT22;22898;52.102;5.776;2023-09-07T00:31:45;28.30;89.90
36990;DHT22;22898;52.102;5.776;2023-09-07T00:34:11;28.30;89.90
36990;DHT22;22898;52.102;5.776;2023-09-07T00:36:37;28.30;89.80
36990;DHT22;22898;52.102;5.776;2023-09-07T00:39:03;28.30;90.20
36990;DHT22;22898;52.102;5.776;2023-09-07T00:41:28;28.30;89.80
36990;DHT22;22898;52.102;5.776;2023-09-07T00:43:54;28.30;89.70
36990;DHT22;22898;52.102;5.776;2023-09-07T00:46:19;28.30;89.70
36990;DHT22;22898;52.102;5.776;2023-09-07T00:48:47;28.30;89.20
36990;DHT22;22898;52.102;5.776;2023-09-07T00:51:13;28.30;89.50
36990;DHT22;22898;52.102;5.776;2023-09-07T00:53:39;28.20;89.50
36990;DHT22;22898;52.102;5.776;2023-09-07T00:56:05;28.20;89.90
36990;DHT22;22898;52.102;5.776;2023-09-07T00:58:31;28.10;90.00
36990;DHT22;22898;52.102;5.776;2023-09-07T01:00:57;28.00;90.10
36990;DHT22;22898;52.102;5.776;2023-09-07T01:03:24;27.90;90.20
36990;DHT22;22898;52.102;5.776;2023-09-07T01:06:01;27.80;90.30
36990;DHT22;22898;52.102;5.776;2023-09-07T01:08:35;27.80;90.30
36990;DHT22;22898;52.102;5.776;2023-09-07T01:11:15;27.80;90.40
36990;DHT22;22898;52.102;5.776;2023-09-07T01:13:41;27.70;90.30
36990;DHT22;22898;52.102;5.776;2023-09-07T01:16:08;27.60;90.40
36990;DHT22;22898;52.102;5.776;2023-09-07T01:18:35;27.60;90.40
36990;DHT22;22898;52.102;5.776;2023-09-07T01:21:05;27.60;90.40
36990;DHT22;22898;52.102;5.776;2023-09-07T01:23:34;27.60;90.40
36990;DHT22;22898;52.102;5.776;2023-09-07T01:26:00;27.50;90.50
36990;DHT22;22898;52.102;5.776;2023-09-07T01:28:26;27.40;90.50
36990;DHT22;22898;52.102;5.776;2023-09-07T01:30:51;27.30;90.60
36990;DHT22;22898;52.102;5.776;2023-09-07T01:33:18;27.30;90.60
36990;DHT22;22898;52.102;5.776;2023-09-07T01:35:43;27.20;90.70
36990;DHT22;22898;52.102;5.776;2023-09-07T01:38:10;27.20;90.70
36990;DHT22;22898;52.102;5.776;2023-09-07T01:40:35;27.20;90.70
36990;DHT22;22898;52.102;5.776;2023-09-07T01:43:01;27.20;90.60
36990;DHT22;22898;52.102;5.776;2023-09-07T01:45:26;27.20;90.70
36990;DHT22;22898;52.102;5.776;2023-09-07T01:47:52;27.10;90.70
36990;DHT22;22898;52.102;5.776;2023-09-07T01:50:18;27.10;90.70
36990;DHT22;22898;52.102;5.776;2023-09-07T01:52:48;27.10;90.70
36990;DHT22;22898;52.102;5.776;2023-09-07T01:55:14;27.10;90.90
36990;DHT22;22898;52.102;5.776;2023-09-07T01:57:41;27.10;90.80
36990;DHT22;22898;52.102;5.776;2023-09-07T02:00:06;27.10;90.90
36990;DHT22;22898;52.102;5.776;2023-09-07T02:02:32;27.00;90.80
36990;DHT22;22898;52.102;5.776;2023-09-07T02:04:58;27.10;90.70
36990;DHT22;22898;52.102;5.776;2023-09-07T02:07:24;27.10;90.60
36990;DHT22;22898;52.102;5.776;2023-09-07T02:09:49;27.10;90.60
36990;DHT22;22898;52.102;5.776;2023-09-07T02:12:15;27.10;90.60
36990;DHT22;22898;52.102;5.776;2023-09-07T02:14:40;27.10;90.70
36990;DHT22;22898;52.102;5.776;2023-09-07T02:17:06;27.00;90.80
36990;DHT22;22898;52.102;5.776;2023-09-07T02:19:32;26.90;90.90
36990;DHT22;22898;52.102;5.776;2023-09-07T02:21:57;26.90;91.10
36990;DHT22;22898;52.102;5.776;2023-09-07T02:24:23;26.90;91.00
36990;DHT22;22898;52.102;5.776;2023-09-07T02:26:48;26.80;91.10
36990;DHT22;22898;52.102;5.776;2023-09-07T02:29:14;26.90;91.00
36990;DHT22;22898;52.102;5.776;2023-09-07T02:31:40;26.90;91.00
36990;DHT22;22898;52.102;5.776;2023-09-07T02:34:06;26.90;91.00
36990;DHT22;22898;52.102;5.776;2023-09-07T02:36:32;26.80;91.20
36990;DHT22;22898;52.102;5.776;2023-09-07T02:38:58;26.80;91.20
36990;DHT22;22898;52.102;5.776;2023-09-07T02:41:24;26.80;91.20
36990;DHT22;22898;52.102;5.776;2023-09-07T02:43:49;26.80;91.10
36990;DHT22;22898;52.102;5.776;2023-09-07T02:46:15;26.80;91.10
36990;DHT22;22898;52.102;5.776;2023-09-07T02:48:41;26.80;91.10
36990;DHT22;22898;52.102;5.776;2023-09-07T02:51:07;26.70;91.10
36990;DHT22;22898;52.102;5.776;2023-09-07T02:53:32;26.70;91.00
36990;DHT22;22898;52.102;5.776;2023-09-07T02:55:58;26.70;91.00
36990;DHT22;22898;52.102;5.776;2023-09-07T02:58:24;26.70;91.10
36990;DHT22;22898;52.102;5.776;2023-09-07T03:00:51;26.70;91.10
36990;DHT22;22898;52.102;5.776;2023-09-07T03:03:17;26.70;91.20
36990;DHT22;22898;52.102;5.776;2023-09-07T03:05:43;26.70;91.00
36990;DHT22;22898;52.102;5.776;2023-09-07T03:08:09;26.60;91.10
36990;DHT22;22898;52.102;5.776;2023-09-07T03:10:38;26.60;91.00
36990;DHT22;22898;52.102;5.776;2023-09-07T03:13:05;26.70;91.00
36990;DHT22;22898;52.102;5.776;2023-09-07T03:15:31;26.70;90.90
36990;DHT22;22898;52.102;5.776;2023-09-07T03:17:57;26.60;91.00
36990;DHT22;22898;52.102;5.776;2023-09-07T03:20:22;26.60;91.00
36990;DHT22;22898;52.102;5.776;2023-09-07T03:22:48;26.60;91.00
36990;DHT22;22898;52.102;5.776;2023-09-07T03:25:14;26.60;91.00
36990;DHT22;22898;52.102;5.776;2023-09-07T03:27:40;26.50;91.10
36990;DHT22;22898;52.102;5.776;2023-09-07T03:30:06;26.50;91.10
36990;DHT22;22898;52.102;5.776;2023-09-07T03:32:33;26.50;91.10
36990;DHT22;22898;52.102;5.776;2023-09-07T03:34:59;26.40;91.10
36990;DHT22;22898;52.102;5.776;2023-09-07T03:37:26;26.50;91.20
36990;DHT22;22898;52.102;5.776;2023-09-07T03:39:52;26.50;91.20
36990;DHT22;22898;52.102;5.776;2023-09-07T03:42:18;26.50;91.20
36990;DHT22;22898;52.102;5.776;2023-09-07T03:44:44;26.50;91.30
36990;DHT22;22898;52.102;5.776;2023-09-07T03:47:10;26.50;91.20
36990;DHT22;22898;52.102;5.776;2023-09-07T03:49:36;26.50;91.30
36990;DHT22;22898;52.102;5.776;2023-09-07T03:52:02;26.50;91.20
36990;DHT22;22898;52.102;5.776;2023-09-07T03:54:27;26.30;91.30
36990;DHT22;22898;52.102;5.776;2023-09-07T03:56:55;26.40;91.50
36990;DHT22;22898;52.102;5.776;2023-09-07T03:59:21;26.30;91.40
36990;DHT22;22898;52.102;5.776;2023-09-07T04:01:46;26.40;91.40
36990;DHT22;22898;52.102;5.776;2023-09-07T04:04:12;26.40;91.40
36990;DHT22;22898;52.102;5.776;2023-09-07T04:06:37;26.40;91.40
36990;DHT22;22898;52.102;5.776;2023-09-07T04:09:03;26.40;91.30
36990;DHT22;22898;52.102;5.776;2023-09-07T04:11:29;26.40;91.40
36990;DHT22;22898;52.102;5.776;2023-09-07T04:13:54;26.40;91.40
36990;DHT22;22898;52.102;5.776;2023-09-07T04:16:20;26.40;91.40
36990;DHT22;22898;52.102;5.776;2023-09-07T04:18:45;26.40;91.30
36990;DHT22;22898;52.102;5.776;2023-09-07T04:21:11;26.40;91.10
36990;DHT22;22898;52.102;5.776;2023-09-07T04:23:37;26.40;91.10
36990;DHT22;22898;52.102;5.776;2023-09-07T04:26:11;26.50;91.00
36990;DHT22;22898;52.102;5.776;2023-09-07T04:28:40;26.40;91.00
36990;DHT22;22898;52.102;5.776;2023-09-07T04:31:06;26.40;90.90
36990;DHT22;22898;52.102;5.776;2023-09-07T04:33:32;26.40;90.80
36990;DHT22;22898;52.102;5.776;2023-09-07T04:36:10;26.40;90.70
36990;DHT22;22898;52.102;5.776;2023-09-07T04:38:36;26.30;90.70
36990;DHT22;22898;52.102;5.776;2023-09-07T04:41:08;26.20;90.80
36990;DHT22;22898;52.102;5.776;2023-09-07T04:43:34;26.10;91.00
36990;DHT22;22898;52.102;5.776;2023-09-07T04:46:00;26.00;91.10
36990;DHT22;22898;52.102;5.776;2023-09-07T04:48:25;25.90;91.20
36990;DHT22;22898;52.102;5.776;2023-09-07T04:50:59;25.90;91.20
36990;DHT22;22898;52.102;5.776;2023-09-07T04:53:24;25.80;91.20
36990;DHT22;22898;52.102;5.776;2023-09-07T04:55:50;25.80;91.20
36990;DHT22;22898;52.102;5.776;2023-09-07T04:58:15;25.80;91.10
36990;DHT22;22898;52.102;5.776;2023-09-07T05:00:41;25.80;91.10
36990;DHT22;22898;52.102;5.776;2023-09-07T05:03:06;25.80;91.20
36990;DHT22;22898;52.102;5.776;2023-09-07T05:05:32;25.70;91.20
36990;DHT22;22898;52.102;5.776;2023-09-07T05:07:57;25.70;91.20
36990;DHT22;22898;52.102;5.776;2023-09-07T05:10:23;25.70;91.30
36990;DHT22;22898;52.102;5.776;2023-09-07T05:12:48;25.70;91.20
36990;DHT22;22898;52.102;5.776;2023-09-07T05:15:14;25.70;91.30
36990;DHT22;22898;52.102;5.776;2023-09-07T05:17:39;25.60;91.30
36990;DHT22;22898;52.102;5.776;2023-09-07T05:20:05;25.60;91.30
36990;DHT22;22898;52.102;5.776;2023-09-07T05:22:31;25.60;91.40
36990;DHT22;22898;52.102;5.776;2023-09-07T05:24:59;25.60;91.60
36990;DHT22;22898;52.102;5.776;2023-09-07T05:27:25;25.60;91.70
36990;DHT22;22898;52.102;5.776;2023-09-07T05:29:51;25.60;91.70
36990;DHT22;22898;52.102;5.776;2023-09-07T05:32:16;25.60;91.60
36990;DHT22;22898;52.102;5.776;2023-09-07T05:34:42;25.60;91.80
36990;DHT22;22898;52.102;5.776;2023-09-07T05:37:07;25.60;91.70
36990;DHT22;22898;52.102;5.776;2023-09-07T05:39:33;25.60;92.00
36990;DHT22;22898;52.102;5.776;2023-09-07T05:41:58;25.70;92.20
36990;DHT22;22898;52.102;5.776;2023-09-07T05:44:24;25.80;92.10
36990;DHT22;22898;52.102;5.776;2023-09-07T05:46:49;25.80;92.10
36990;DHT22;22898;52.102;5.776;2023-09-07T05:49:15;25.90;92.10
36990;DHT22;22898;52.102;5.776;2023-09-07T05:51:40;25.90;92.10
36990;DHT22;22898;52.102;5.776;2023-09-07T05:54:06;26.00;92.00
36990;DHT22;22898;52.102;5.776;2023-09-07T05:56:31;26.10;92.00
36990;DHT22;22898;52.102;5.776;2023-09-07T05:58:59;26.20;91.80
36990;DHT22;22898;52.102;5.776;2023-09-07T06:01:24;26.30;91.80
36990;DHT22;22898;52.102;5.776;2023-09-07T06:03:50;26.30;91.70
36990;DHT22;22898;52.102;5.776;2023-09-07T06:06:15;26.40;91.70
36990;DHT22;22898;52.102;5.776;2023-09-07T06:08:41;26.50;91.70
36990;DHT22;22898;52.102;5.776;2023-09-07T06:11:06;26.60;91.60
36990;DHT22;22898;52.102;5.776;2023-09-07T06:13:32;26.70;91.50
36990;DHT22;22898;52.102;5.776;2023-09-07T06:15:57;26.70;91.50
36990;DHT22;22898;52.102;5.776;2023-09-07T06:18:25;26.80;91.50
36990;DHT22;22898;52.102;5.776;2023-09-07T06:20:51;26.80;91.50
36990;DHT22;22898;52.102;5.776;2023-09-07T06:23:17;26.90;91.50
36990;DHT22;22898;52.102;5.776;2023-09-07T06:25:42;27.00;91.40
36990;DHT22;22898;52.102;5.776;2023-09-07T06:28:08;27.10;91.50
36990;DHT22;22898;52.102;5.776;2023-09-07T06:30:33;27.10;91.50
36990;DHT22;22898;52.102;5.776;2023-09-07T06:32:59;27.20;91.60
36990;DHT22;22898;52.102;5.776;2023-09-07T06:35:25;27.30;91.50
36990;DHT22;22898;52.102;5.776;2023-09-07T06:37:50;27.40;91.60
36990;DHT22;22898;52.102;5.776;2023-09-07T06:40:16;27.50;91.60
36990;DHT22;22898;52.102;5.776;2023-09-07T06:42:43;27.60;91.30
36990;DHT22;22898;52.102;5.776;2023-09-07T06:45:09;27.50;91.10
36990;DHT22;22898;52.102;5.776;2023-09-07T06:47:35;27.50;91.20
36990;DHT22;22898;52.102;5.776;2023-09-07T06:50:01;27.40;91.60
36990;DHT22;22898;52.102;5.776;2023-09-07T06:52:27;27.50;91.70
36990;DHT22;22898;52.102;5.776;2023-09-07T06:54:53;27.60;91.70
36990;DHT22;22898;52.102;5.776;2023-09-07T06:57:19;27.70;91.70
36990;DHT22;22898;52.102;5.776;2023-09-07T06:59:45;27.90;91.30
36990;DHT22;22898;52.102;5.776;2023-09-07T07:02:10;28.10;91.00
36990;DHT22;22898;52.102;5.776;2023-09-07T07:04:36;28.20;90.90
36990;DHT22;22898;52.102;5.776;2023-09-07T07:07:01;28.30;91.00
36990;DHT22;22898;52.102;5.776;2023-09-07T07:09:30;28.30;91.10
36990;DHT22;22898;52.102;5.776;2023-09-07T07:11:56;28.30;90.50
36990;DHT22;22898;52.102;5.776;2023-09-07T07:14:21;28.30;90.20
36990;DHT22;22898;52.102;5.776;2023-09-07T07:16:47;28.20;90.40
36990;DHT22;22898;52.102;5.776;2023-09-07T07:19:12;28.30;90.70
36990;DHT22;22898;52.102;5.776;2023-09-07T07:21:38;28.30;90.70
36990;DHT22;22898;52.102;5.776;2023-09-07T07:24:04;28.40;90.90
36990;DHT22;22898;52.102;5.776;2023-09-07T07:26:32;28.80;90.20
36990;DHT22;22898;52.102;5.776;2023-09-07T07:28:58;29.00;90.30
36990;DHT22;22898;52.102;5.776;2023-09-07T07:31:24;28.90;89.70
36990;DHT22;22898;52.102;5.776;2023-09-07T07:33:49;29.00;89.70
36990;DHT22;22898;52.102;5.776;2023-09-07T07:36:15;29.20;90.00
36990;DHT22;22898;52.102;5.776;2023-09-07T07:38:41;29.40;89.30
36990;DHT22;22898;52.102;5.776;2023-09-07T07:41:07;29.60;86.90
36990;DHT22;22898;52.102;5.776;2023-09-07T07:43:33;29.60;86.60
36990;DHT22;22898;52.102;5.776;2023-09-07T07:45:59;29.50;88.00
36990;DHT22;22898;52.102;5.776;2023-09-07T07:48:24;29.60;87.70
36990;DHT22;22898;52.102;5.776;2023-09-07T07:50:50;29.70;87.80
36990;DHT22;22898;52.102;5.776;2023-09-07T07:53:16;29.80;87.60
36990;DHT22;22898;52.102;5.776;2023-09-07T07:55:42;29.90;86.30
36990;DHT22;22898;52.102;5.776;2023-09-07T07:58:08;30.00;85.70
36990;DHT22;22898;52.102;5.776;2023-09-07T08:00:37;30.00;85.70
36990;DHT22;22898;52.102;5.776;2023-09-07T08:03:04;30.10;85.80
36990;DHT22;22898;52.102;5.776;2023-09-07T08:05:33;30.10;85.90
36990;DHT22;22898;52.102;5.776;2023-09-07T08:07:59;30.40;85.80
36990;DHT22;22898;52.102;5.776;2023-09-07T08:10:25;30.60;85.40
36990;DHT22;22898;52.102;5.776;2023-09-07T08:12:55;30.70;85.70
36990;DHT22;22898;52.102;5.776;2023-09-07T08:15:21;30.90;86.10
36990;DHT22;22898;52.102;5.776;2023-09-07T08:17:48;31.10;84.40
36990;DHT22;22898;52.102;5.776;2023-09-07T08:20:14;31.20;84.60
36990;DHT22;22898;52.102;5.776;2023-09-07T08:22:40;31.40;83.70
36990;DHT22;22898;52.102;5.776;2023-09-07T08:25:09;31.50;83.70
36990;DHT22;22898;52.102;5.776;2023-09-07T08:27:34;31.40;83.10
36990;DHT22;22898;52.102;5.776;2023-09-07T08:30:00;31.30;83.90
36990;DHT22;22898;52.102;5.776;2023-09-07T08:32:25;31.50;83.20
36990;DHT22;22898;52.102;5.776;2023-09-07T08:34:51;31.50;82.70
36990;DHT22;22898;52.102;5.776;2023-09-07T08:37:22;31.40;80.60
36990;DHT22;22898;52.102;5.776;2023-09-07T08:39:50;31.30;81.70
36990;DHT22;22898;52.102;5.776;2023-09-07T08:42:16;31.10;80.70
36990;DHT22;22898;52.102;5.776;2023-09-07T08:44:42;31.40;81.70
36990;DHT22;22898;52.102;5.776;2023-09-07T08:47:08;31.50;81.80
36990;DHT22;22898;52.102;5.776;2023-09-07T08:49:35;31.50;80.20
36990;DHT22;22898;52.102;5.776;2023-09-07T08:52:02;31.40;80.20
36990;DHT22;22898;52.102;5.776;2023-09-07T08:54:30;31.60;81.60
36990;DHT22;22898;52.102;5.776;2023-09-07T08:56:57;31.80;78.90
36990;DHT22;22898;52.102;5.776;2023-09-07T08:59:22;32.10;79.30
36990;DHT22;22898;52.102;5.776;2023-09-07T09:01:48;32.20;78.60
36990;DHT22;22898;52.102;5.776;2023-09-07T09:04:14;32.20;76.70
36990;DHT22;22898;52.102;5.776;2023-09-07T09:06:41;32.30;77.00
36990;DHT22;22898;52.102;5.776;2023-09-07T09:09:06;32.30;76.40
36990;DHT22;22898;52.102;5.776;2023-09-07T09:11:32;32.50;76.10
36990;DHT22;22898;52.102;5.776;2023-09-07T09:13:58;32.80;75.60
36990;DHT22;22898;52.102;5.776;2023-09-07T09:16:23;33.00;75.40
36990;DHT22;22898;52.102;5.776;2023-09-07T09:18:58;33.00;75.20
36990;DHT22;22898;52.102;5.776;2023-09-07T09:21:25;32.80;74.50
36990;DHT22;22898;52.102;5.776;2023-09-07T09:23:52;32.50;74.40
36990;DHT22;22898;52.102;5.776;2023-09-07T09:26:19;32.60;74.10
36990;DHT22;22898;52.102;5.776;2023-09-07T09:28:45;32.90;73.50
36990;DHT22;22898;52.102;5.776;2023-09-07T09:31:12;33.10;74.20
36990;DHT22;22898;52.102;5.776;2023-09-07T09:33:39;32.80;73.80
36990;DHT22;22898;52.102;5.776;2023-09-07T09:36:06;32.90;73.50
36990;DHT22;22898;52.102;5.776;2023-09-07T09:38:32;33.10;74.20
36990;DHT22;22898;52.102;5.776;2023-09-07T09:40:58;33.50;74.20
36990;DHT22;22898;52.102;5.776;2023-09-07T09:43:25;33.30;73.50
36990;DHT22;22898;52.102;5.776;2023-09-07T09:45:52;33.40;73.80
36990;DHT22;22898;52.102;5.776;2023-09-07T09:48:19;33.10;74.00
36990;DHT22;22898;52.102;5.776;2023-09-07T09:50:49;32.90;73.20
36990;DHT22;22898;52.102;5.776;2023-09-07T09:53:16;33.00;74.20
36990;DHT22;22898;52.102;5.776;2023-09-07T09:55:45;32.90;73.60
36990;DHT22;22898;52.102;5.776;2023-09-07T09:58:16;33.10;74.40
36990;DHT22;22898;52.102;5.776;2023-09-07T10:00:54;33.40;74.10
36990;DHT22;22898;52.102;5.776;2023-09-07T10:03:25;33.70;73.70
36990;DHT22;22898;52.102;5.776;2023-09-07T10:05:55;33.90;73.80
36990;DHT22;22898;52.102;5.776;2023-09-07T10:08:21;33.90;72.90
36990;DHT22;22898;52.102;5.776;2023-09-07T10:10:49;33.70;71.30
36990;DHT22;22898;52.102;5.776;2023-09-07T10:13:32;33.30;72.50
36990;DHT22;22898;52.102;5.776;2023-09-07T10:16:06;33.20;71.50
36990;DHT22;22898;52.102;5.776;2023-09-07T10:18:36;33.00;72.70
36990;DHT22;22898;52.102;5.776;2023-09-07T10:21:02;33.00;73.60
36990;DHT22;22898;52.102;5.776;2023-09-07T10:23:45;33.00;73.00
36990;DHT22;22898;52.102;5.776;2023-09-07T10:26:15;33.10;74.00
36990;DHT22;22898;52.102;5.776;2023-09-07T10:28:43;33.20;73.20
36990;DHT22;22898;52.102;5.776;2023-09-07T10:31:19;33.30;74.10
36990;DHT22;22898;52.102;5.776;2023-09-07T10:33:46;33.60;73.60
36990;DHT22;22898;52.102;5.776;2023-09-07T10:36:25;33.80;72.20
36990;DHT22;22898;52.102;5.776;2023-09-07T10:38:51;33.90;72.50
36990;DHT22;22898;52.102;5.776;2023-09-07T10:41:19;34.00;72.70
36990;DHT22;22898;52.102;5.776;2023-09-07T10:43:53;34.00;71.30
36990;DHT22;22898;52.102;5.776;2023-09-07T10:46:21;34.00;70.50
36990;DHT22;22898;52.102;5.776;2023-09-07T10:48:51;33.90;70.60
36990;DHT22;22898;52.102;5.776;2023-09-07T10:51:18;33.90;70.60
36990;DHT22;22898;52.102;5.776;2023-09-07T10:53:43;33.40;72.50
36990;DHT22;22898;52.102;5.776;2023-09-07T10:56:09;33.40;72.90
36990;DHT22;22898;52.102;5.776;2023-09-07T10:58:35;33.60;72.90
36990;DHT22;22898;52.102;5.776;2023-09-07T11:01:04;33.80;70.40
36990;DHT22;22898;52.102;5.776;2023-09-07T11:03:30;34.00;71.40
36990;DHT22;22898;52.102;5.776;2023-09-07T11:06:02;33.80;71.00
36990;DHT22;22898;52.102;5.776;2023-09-07T11:08:29;33.60;71.20
36990;DHT22;22898;52.102;5.776;2023-09-07T11:10:55;33.90;71.60
36990;DHT22;22898;52.102;5.776;2023-09-07T11:13:23;33.90;71.40
36990;DHT22;22898;52.102;5.776;2023-09-07T11:15:49;34.00;71.80
36990;DHT22;22898;52.102;5.776;2023-09-07T11:18:19;34.30;71.80
36990;DHT22;22898;52.102;5.776;2023-09-07T11:20:46;34.60;71.20
36990;DHT22;22898;52.102;5.776;2023-09-07T11:23:12;34.80;71.10
36990;DHT22;22898;52.102;5.776;2023-09-07T11:25:38;35.00;70.40
36990;DHT22;22898;52.102;5.776;2023-09-07T11:28:05;35.20;68.80
36990;DHT22;22898;52.102;5.776;2023-09-07T11:30:32;35.30;68.80
36990;DHT22;22898;52.102;5.776;2023-09-07T11:33:06;35.30;68.30
36990;DHT22;22898;52.102;5.776;2023-09-07T11:35:33;35.40;67.10
36990;DHT22;22898;52.102;5.776;2023-09-07T11:38:03;35.40;68.20
36990;DHT22;22898;52.102;5.776;2023-09-07T11:40:30;35.30;67.20
36990;DHT22;22898;52.102;5.776;2023-09-07T11:42:56;35.50;67.60
36990;DHT22;22898;52.102;5.776;2023-09-07T11:45:22;35.50;67.60
36990;DHT22;22898;52.102;5.776;2023-09-07T11:47:48;35.50;67.30
36990;DHT22;22898;52.102;5.776;2023-09-07T11:50:16;35.50;67.40
36990;DHT22;22898;52.102;5.776;2023-09-07T11:52:41;35.60;66.60
36990;DHT22;22898;52.102;5.776;2023-09-07T11:55:07;35.80;67.60
36990;DHT22;22898;52.102;5.776;2023-09-07T11:57:33;35.80;68.50
36990;DHT22;22898;52.102;5.776;2023-09-07T11:59:59;35.90;68.50
36990;DHT22;22898;52.102;5.776;2023-09-07T12:02:24;35.90;68.40
36990;DHT22;22898;52.102;5.776;2023-09-07T12:04:51;35.80;67.60
36990;DHT22;22898;52.102;5.776;2023-09-07T12:07:17;35.70;66.30
36990;DHT22;22898;52.102;5.776;2023-09-07T12:09:43;35.80;66.10
36990;DHT22;22898;52.102;5.776;2023-09-07T12:12:08;35.90;65.10
36990;DHT22;22898;52.102;5.776;2023-09-07T12:14:36;35.90;65.40
36990;DHT22;22898;52.102;5.776;2023-09-07T12:17:01;35.80;63.90
36990;DHT22;22898;52.102;5.776;2023-09-07T12:19:27;35.70;65.20
36990;DHT22;22898;52.102;5.776;2023-09-07T12:21:54;35.60;66.10
36990;DHT22;22898;52.102;5.776;2023-09-07T12:24:19;35.50;65.80
36990;DHT22;22898;52.102;5.776;2023-09-07T12:26:45;35.50;67.10
36990;DHT22;22898;52.102;5.776;2023-09-07T12:29:11;35.70;66.30
36990;DHT22;22898;52.102;5.776;2023-09-07T12:31:37;35.90;64.70
36990;DHT22;22898;52.102;5.776;2023-09-07T12:34:02;35.90;65.10
36990;DHT22;22898;52.102;5.776;2023-09-07T12:36:28;35.80;65.50
36990;DHT22;22898;52.102;5.776;2023-09-07T12:38:55;36.00;65.80
36990;DHT22;22898;52.102;5.776;2023-09-07T12:41:29;36.00;65.20
36990;DHT22;22898;52.102;5.776;2023-09-07T12:43:56;36.00;63.60
36990;DHT22;22898;52.102;5.776;2023-09-07T12:46:21;35.70;63.40
36990;DHT22;22898;52.102;5.776;2023-09-07T12:48:47;35.80;64.70
36990;DHT22;22898;52.102;5.776;2023-09-07T12:51:12;35.90;64.70
36990;DHT22;22898;52.102;5.776;2023-09-07T12:53:38;35.90;63.90
36990;DHT22;22898;52.102;5.776;2023-09-07T12:56:05;35.70;64.90
36990;DHT22;22898;52.102;5.776;2023-09-07T12:58:30;35.50;64.40
36990;DHT22;22898;52.102;5.776;2023-09-07T13:00:56;35.40;65.20
36990;DHT22;22898;52.102;5.776;2023-09-07T13:03:21;35.60;65.50
36990;DHT22;22898;52.102;5.776;2023-09-07T13:05:48;35.80;64.90
36990;DHT22;22898;52.102;5.776;2023-09-07T13:08:13;35.90;64.80
36990;DHT22;22898;52.102;5.776;2023-09-07T13:10:39;36.20;64.40
36990;DHT22;22898;52.102;5.776;2023-09-07T13:13:05;36.20;62.20
36990;DHT22;22898;52.102;5.776;2023-09-07T13:15:31;36.30;63.70
36990;DHT22;22898;52.102;5.776;2023-09-07T13:17:56;36.20;62.90
36990;DHT22;22898;52.102;5.776;2023-09-07T13:20:22;36.00;61.70
36990;DHT22;22898;52.102;5.776;2023-09-07T13:22:47;36.20;61.70
36990;DHT22;22898;52.102;5.776;2023-09-07T13:25:13;36.20;62.10
36990;DHT22;22898;52.102;5.776;2023-09-07T13:27:38;36.40;62.80
36990;DHT22;22898;52.102;5.776;2023-09-07T13:30:05;36.60;62.50
36990;DHT22;22898;52.102;5.776;2023-09-07T13:32:33;36.60;62.30
36990;DHT22;22898;52.102;5.776;2023-09-07T13:34:59;36.70;62.90
36990;DHT22;22898;52.102;5.776;2023-09-07T13:37:25;36.60;62.40
36990;DHT22;22898;52.102;5.776;2023-09-07T13:39:50;36.70;62.60
36990;DHT22;22898;52.102;5.776;2023-09-07T13:42:16;36.70;61.30
36990;DHT22;22898;52.102;5.776;2023-09-07T13:44:41;36.60;62.20
36990;DHT22;22898;52.102;5.776;2023-09-07T13:47:07;36.60;61.90
36990;DHT22;22898;52.102;5.776;2023-09-07T13:49:34;36.50;63.00
36990;DHT22;22898;52.102;5.776;2023-09-07T13:51:59;36.70;63.70
36990;DHT22;22898;52.102;5.776;2023-09-07T13:54:25;36.90;63.20
36990;DHT22;22898;52.102;5.776;2023-09-07T13:56:50;37.00;62.70
36990;DHT22;22898;52.102;5.776;2023-09-07T13:59:16;37.10;63.50
36990;DHT22;22898;52.102;5.776;2023-09-07T14:01:41;36.90;64.30
36990;DHT22;22898;52.102;5.776;2023-09-07T14:04:07;36.90;64.30
36990;DHT22;22898;52.102;5.776;2023-09-07T14:06:33;36.80;64.10
36990;DHT22;22898;52.102;5.776;2023-09-07T14:08:58;36.70;65.50
36990;DHT22;22898;52.102;5.776;2023-09-07T14:11:24;36.50;64.90
36990;DHT22;22898;52.102;5.776;2023-09-07T14:13:49;36.40;65.60
36990;DHT22;22898;52.102;5.776;2023-09-07T14:16:17;36.20;66.10
36990;DHT22;22898;52.102;5.776;2023-09-07T14:18:44;36.40;66.60
36990;DHT22;22898;52.102;5.776;2023-09-07T14:21:10;36.70;64.30
36990;DHT22;22898;52.102;5.776;2023-09-07T14:23:35;36.80;65.40
36990;DHT22;22898;52.102;5.776;2023-09-07T14:26:02;37.10;64.50
36990;DHT22;22898;52.102;5.776;2023-09-07T14:28:28;37.40;63.00
36990;DHT22;22898;52.102;5.776;2023-09-07T14:30:53;37.30;62.50
36990;DHT22;22898;52.102;5.776;2023-09-07T14:33:20;36.90;62.00
36990;DHT22;22898;52.102;5.776;2023-09-07T14:35:45;36.80;63.10
36990;DHT22;22898;52.102;5.776;2023-09-07T14:38:12;36.80;62.90
36990;DHT22;22898;52.102;5.776;2023-09-07T14:40:38;36.90;63.30
36990;DHT22;22898;52.102;5.776;2023-09-07T14:43:04;37.10;63.50
36990;DHT22;22898;52.102;5.776;2023-09-07T14:45:31;37.20;64.00
36990;DHT22;22898;52.102;5.776;2023-09-07T14:47:56;37.00;62.40
36990;DHT22;22898;52.102;5.776;2023-09-07T14:50:22;36.90;61.90
36990;DHT22;22898;52.102;5.776;2023-09-07T14:52:48;36.90;62.70
36990;DHT22;22898;52.102;5.776;2023-09-07T14:55:13;37.10;63.30
36990;DHT22;22898;52.102;5.776;2023-09-07T14:57:42;37.30;62.60
36990;DHT22;22898;52.102;5.776;2023-09-07T15:00:09;37.40;62.50
36990;DHT22;22898;52.102;5.776;2023-09-07T15:02:35;37.50;63.10
36990;DHT22;22898;52.102;5.776;2023-09-07T15:05:00;37.70;63.20
36990;DHT22;22898;52.102;5.776;2023-09-07T15:07:26;37.80;62.60
36990;DHT22;22898;52.102;5.776;2023-09-07T15:09:51;37.70;63.30
36990;DHT22;22898;52.102;5.776;2023-09-07T15:12:17;37.40;63.60
36990;DHT22;22898;52.102;5.776;2023-09-07T15:14:42;37.20;64.00
36990;DHT22;22898;52.102;5.776;2023-09-07T15:17:10;37.30;65.10
36990;DHT22;22898;52.102;5.776;2023-09-07T15:19:36;37.30;63.20
36990;DHT22;22898;52.102;5.776;2023-09-07T15:22:01;37.40;63.60
36990;DHT22;22898;52.102;5.776;2023-09-07T15:24:27;37.60;63.90